Terminal Aerodrome Forecast
Issued by NWS Billings, MT

Home | Current Version | Previous Version | Text Only | Print | Product List | Glossary On
Versions: 1 2 3 4 5 6 7 8 9 10 11 12 13 14
000
FTUS45 KBYZ 252321
TAFBIL
TAF
KBIL 252321Z 2600/2624 28010KT P6SM VCTS SCT060CB BKN100
     FM260200 28010KT P6SM VCSH SCT060 BKN100
     FM261600 29010KT P6SM SCT080 BKN110
     FM262100 31010KT P6SM VCTS SCT060CB BKN100=

USA.gov is the U.S. government's official web portal to all federal, state and local government web resources and services.